createdAt,value
2022-11-25T00:01:23.739Z,4.72
2022-11-25T00:03:52.730Z,4.69
2022-11-25T00:06:30.616Z,4.71
2022-11-25T00:09:01.371Z,4.66
2022-11-25T00:11:29.149Z,4.68
2022-11-25T00:13:57.640Z,4.61
2022-11-25T00:16:26.652Z,4.68
2022-11-25T00:18:55.653Z,4.69
2022-11-25T00:21:26.119Z,4.79
2022-11-25T00:23:56.059Z,4.84
2022-11-25T00:26:24.405Z,4.80
2022-11-25T00:28:52.082Z,4.84
2022-11-25T00:31:22.963Z,4.83
2022-11-25T00:33:50.587Z,4.84
2022-11-25T00:36:21.266Z,4.84
2022-11-25T00:38:53.653Z,4.78
2022-11-25T00:41:38.867Z,4.72
2022-11-25T00:44:24.509Z,4.68
2022-11-25T00:46:51.289Z,4.62
2022-11-25T00:49:18.096Z,4.61
2022-11-25T00:51:44.987Z,4.56
2022-11-25T00:54:12.260Z,4.53
2022-11-25T00:56:39.249Z,4.49
2022-11-25T00:59:06.170Z,4.46
2022-11-25T01:01:33.556Z,4.48
2022-11-25T01:04:00.440Z,4.45
2022-11-25T01:06:27.281Z,4.35
2022-11-25T01:08:54.481Z,4.48
2022-11-25T01:11:23.152Z,4.50
2022-11-25T01:13:50.713Z,4.39
2022-11-25T01:16:19.996Z,4.42
2022-11-25T01:18:47.813Z,4.42
2022-11-25T01:21:22.363Z,4.45
2022-11-25T01:23:50.088Z,4.46
2022-11-25T01:26:23.799Z,4.40
2022-11-25T01:28:56.758Z,4.40
2022-11-25T01:31:26.165Z,4.40
2022-11-25T01:34:03.172Z,4.38
2022-11-25T01:36:30.823Z,4.35
2022-11-25T01:39:00.169Z,4.35
2022-11-25T01:41:30.586Z,4.36
2022-11-25T01:44:14.568Z,4.36
2022-11-25T01:46:56.144Z,4.38
2022-11-25T01:49:44.873Z,4.38
2022-11-25T01:52:29.805Z,4.37
2022-11-25T01:55:14.743Z,4.36
2022-11-25T01:57:48.781Z,4.34
2022-11-25T02:00:17.044Z,4.32
2022-11-25T02:02:44.550Z,4.36
2022-11-25T02:05:23.182Z,4.35
2022-11-25T02:07:52.937Z,4.33
2022-11-25T02:10:27.679Z,4.32
2022-11-25T02:12:54.998Z,4.29
2022-11-25T02:15:22.368Z,4.26
2022-11-25T02:17:49.726Z,4.19
2022-11-25T02:20:20.505Z,4.14
2022-11-25T02:23:25.602Z,4.11
2022-11-25T02:25:54.587Z,4.09
2022-11-25T02:28:31.369Z,4.15
2022-11-25T02:30:59.004Z,4.15
2022-11-25T02:33:28.630Z,4.14
2022-11-25T02:36:15.100Z,4.08
2022-11-25T02:38:45.438Z,4.14
2022-11-25T02:41:29.028Z,4.10
2022-11-25T02:43:55.893Z,4.14
2022-11-25T02:46:25.732Z,4.16
2022-11-25T02:49:10.994Z,4.17
2022-11-25T02:51:40.996Z,4.26
2022-11-25T02:54:08.191Z,4.30
2022-11-25T02:56:36.728Z,4.28
2022-11-25T02:59:04.573Z,4.24
2022-11-25T03:01:32.115Z,4.18
2022-11-25T03:03:59.750Z,4.17
2022-11-25T03:06:26.740Z,4.07
2022-11-25T03:08:53.620Z,4.02
2022-11-25T03:11:20.575Z,4.00
2022-11-25T03:13:47.393Z,3.95
2022-11-25T03:16:14.241Z,3.95
2022-11-25T03:18:41.140Z,3.98
2022-11-25T03:21:07.939Z,4.02
2022-11-25T03:23:34.757Z,4.03
2022-11-25T03:26:07.261Z,4.02
2022-11-25T03:28:34.152Z,3.98
2022-11-25T03:31:00.961Z,4.03
2022-11-25T03:33:27.824Z,4.13
2022-11-25T03:35:54.604Z,4.17
2022-11-25T03:38:21.418Z,4.11
2022-11-25T03:40:48.322Z,3.97
2022-11-25T03:43:15.187Z,3.85
2022-11-25T03:45:42.020Z,3.86
2022-11-25T03:48:08.952Z,3.83
2022-11-25T03:50:35.723Z,3.78
2022-11-25T03:53:02.494Z,3.78
2022-11-25T03:55:29.288Z,3.89
2022-11-25T03:57:56.121Z,3.99
2022-11-25T04:00:22.953Z,4.06
2022-11-25T04:02:49.803Z,4.09
2022-11-25T04:05:16.759Z,4.18
2022-11-25T04:07:43.721Z,4.15
2022-11-25T04:10:11.494Z,4.19
2022-11-25T04:12:47.250Z,4.19
2022-11-25T04:15:18.697Z,4.17
2022-11-25T04:17:45.755Z,3.91
2022-11-25T04:20:14.751Z,4.02
2022-11-25T04:22:42.188Z,4.00
2022-11-25T04:25:10.502Z,4.10
2022-11-25T04:27:37.352Z,4.14
2022-11-25T04:30:05.989Z,4.08
2022-11-25T04:32:32.797Z,4.07
2022-11-25T04:34:59.621Z,4.02
2022-11-25T04:37:26.460Z,3.99
2022-11-25T04:39:53.303Z,4.00
2022-11-25T04:42:31.890Z,4.00
2022-11-25T04:45:26.418Z,3.86
2022-11-25T04:47:53.327Z,3.83
2022-11-25T04:50:23.303Z,3.80
2022-11-25T04:52:50.596Z,3.79
2022-11-25T04:55:17.494Z,3.76
2022-11-25T04:57:44.286Z,3.71
2022-11-25T05:00:12.064Z,3.70
2022-11-25T05:02:39.141Z,3.64
2022-11-25T05:05:06.826Z,3.56
2022-11-25T05:07:33.838Z,3.54
2022-11-25T05:10:00.686Z,3.53
2022-11-25T05:12:29.503Z,3.55
2022-11-25T05:14:57.002Z,3.61
2022-11-25T05:17:28.026Z,3.66
2022-11-25T05:19:54.964Z,3.67
2022-11-25T05:22:25.804Z,3.65
2022-11-25T05:24:52.628Z,3.54
2022-11-25T05:27:20.771Z,3.45
2022-11-25T05:29:54.282Z,3.42
2022-11-25T05:32:22.739Z,3.41
2022-11-25T05:34:49.556Z,3.40
2022-11-25T05:37:19.913Z,3.43
2022-11-25T05:39:50.920Z,3.44
2022-11-25T05:42:17.860Z,3.42
2022-11-25T05:44:44.666Z,3.42
2022-11-25T05:47:11.486Z,3.36
2022-11-25T05:49:38.299Z,3.29
2022-11-25T05:52:05.262Z,3.27
2022-11-25T05:54:32.087Z,3.27
2022-11-25T05:56:58.970Z,3.26
2022-11-25T05:59:25.768Z,3.25
2022-11-25T06:01:56.754Z,3.22
2022-11-25T06:04:23.566Z,3.19
2022-11-25T06:06:50.377Z,3.18
2022-11-25T06:09:17.196Z,3.10
2022-11-25T06:11:44.058Z,3.20
2022-11-25T06:14:10.841Z,3.29
2022-11-25T06:16:37.780Z,3.30
2022-11-25T06:19:06.696Z,3.33
2022-11-25T06:21:33.835Z,3.36
2022-11-25T06:24:01.076Z,3.34
2022-11-25T06:26:27.919Z,3.39
2022-11-25T06:28:56.343Z,3.38
2022-11-25T06:31:25.967Z,3.47
2022-11-25T06:33:54.144Z,3.52
2022-11-25T06:36:22.527Z,3.59
2022-11-25T06:38:52.946Z,3.62
2022-11-25T06:41:21.810Z,3.70
2022-11-25T06:43:48.631Z,3.77
2022-11-25T06:46:24.527Z,3.80
2022-11-25T06:48:53.397Z,3.82
2022-11-25T06:51:20.442Z,3.93
2022-11-25T06:53:47.436Z,3.98
2022-11-25T06:56:24.003Z,4.11
2022-11-25T06:58:51.846Z,4.32
2022-11-25T07:01:29.990Z,4.45
2022-11-25T07:04:03.685Z,4.63
2022-11-25T07:06:32.116Z,4.90
2022-11-25T07:08:59.495Z,5.17
2022-11-25T07:11:33.530Z,5.07
2022-11-25T07:14:04.859Z,5.00
2022-11-25T07:16:34.666Z,4.98
2022-11-25T07:19:02.743Z,5.17
2022-11-25T07:21:31.856Z,5.18
2022-11-25T07:24:01.439Z,5.45
2022-11-25T07:26:32.212Z,5.53
2022-11-25T07:29:02.042Z,5.70
2022-11-25T07:31:35.402Z,5.70
2022-11-25T07:34:13.848Z,5.79
2022-11-25T07:36:41.803Z,5.90
2022-11-25T07:39:19.405Z,5.90
2022-11-25T07:41:49.277Z,5.95
2022-11-25T07:44:16.387Z,5.88
2022-11-25T07:46:49.084Z,5.76
2022-11-25T07:49:22.470Z,5.64
2022-11-25T07:51:50.659Z,5.61
2022-11-25T07:54:17.648Z,5.50
2022-11-25T07:56:45.231Z,5.51
2022-11-25T07:59:19.055Z,5.72
2022-11-25T08:01:46.325Z,5.87
2022-11-25T08:04:19.791Z,5.91
2022-11-25T08:06:51.502Z,5.97
2022-11-25T08:09:22.357Z,6.06
2022-11-25T08:11:49.795Z,6.23
2022-11-25T08:14:17.762Z,6.33
2022-11-25T08:16:45.131Z,6.40
2022-11-25T08:19:16.377Z,6.48
2022-11-25T08:21:43.898Z,6.57
2022-11-25T08:24:18.773Z,6.70
2022-11-25T08:26:45.850Z,6.85
2022-11-25T08:29:18.687Z,7.21
2022-11-25T08:31:45.967Z,7.80
2022-11-25T08:34:31.005Z,8.03
2022-11-25T08:36:58.339Z,7.90
2022-11-25T08:42:12.599Z,7.60
2022-11-25T08:44:39.504Z,7.53
2022-11-25T08:47:06.476Z,7.47
2022-11-25T08:49:39.067Z,7.54
2022-11-25T08:52:07.554Z,7.54
2022-11-25T08:54:34.386Z,7.46
2022-11-25T08:57:01.172Z,7.50
2022-11-25T08:59:28.095Z,7.44
2022-11-25T09:01:55.458Z,7.26
2022-11-25T09:04:22.381Z,7.45
2022-11-25T09:06:49.237Z,7.59
2022-11-25T09:09:16.088Z,7.98
2022-11-25T09:11:43.034Z,8.23
2022-11-25T09:14:09.934Z,8.29
2022-11-25T09:16:36.997Z,8.19
2022-11-25T09:19:04.288Z,8.07
2022-11-25T09:21:31.162Z,8.50
2022-11-25T09:23:58.113Z,7.75
2022-11-25T09:26:29.548Z,7.86
2022-11-25T09:28:56.923Z,8.20
2022-11-25T09:31:24.466Z,8.81
2022-11-25T09:33:51.479Z,9.33
2022-11-25T09:36:20.864Z,9.24
2022-11-25T09:38:47.785Z,8.64
2022-11-25T09:41:59.731Z,10.03
2022-11-25T09:45:13.318Z,10.67
2022-11-25T09:48:03.338Z,11.06
2022-11-25T09:51:17.192Z,11.55
2022-11-25T09:53:57.998Z,12.48
2022-11-25T09:56:36.396Z,13.21
2022-11-25T09:59:22.304Z,14.00
2022-11-25T10:02:23.094Z,13.17
2022-11-25T10:04:59.620Z,12.23
2022-11-25T10:07:43.551Z,13.16
2022-11-25T10:10:41.921Z,14.51
2022-11-25T10:13:26.732Z,15.72
2022-11-25T10:15:59.677Z,16.97
2022-11-25T10:18:39.360Z,17.94
2022-11-25T10:21:06.471Z,17.99
2022-11-25T10:23:38.555Z,18.64
2022-11-25T10:26:17.889Z,19.05
2022-11-25T10:28:56.216Z,18.85
2022-11-25T10:31:35.658Z,19.18
2022-11-25T10:34:36.700Z,19.46
2022-11-25T10:37:13.036Z,18.13
2022-11-25T10:39:40.365Z,17.22
2022-11-25T10:42:21.321Z,16.97
2022-11-25T10:44:48.119Z,16.37
2022-11-25T10:47:52.642Z,16.86
2022-11-25T10:50:48.193Z,17.39
2022-11-25T10:53:24.750Z,17.96
2022-11-25T10:56:24.120Z,18.92
2022-11-25T10:58:50.952Z,19.71
2022-11-25T11:01:25.585Z,19.73
2022-11-25T11:04:04.454Z,20.31
2022-11-25T11:06:46.163Z,17.35
2022-11-25T11:09:46.028Z,16.64
2022-11-25T11:12:29.930Z,18.15
2022-11-25T11:15:21.940Z,18.12
2022-11-25T11:17:49.293Z,18.11
2022-11-25T11:20:31.295Z,19.10
2022-11-25T11:23:14.624Z,19.94
2022-11-25T11:25:45.271Z,21.68
2022-11-25T11:28:37.193Z,22.54
2022-11-25T11:31:10.321Z,21.77
2022-11-25T11:33:51.815Z,21.82
2022-11-25T11:37:06.881Z,22.22
2022-11-25T11:40:01.186Z,23.47
2022-11-25T11:42:46.765Z,24.40
2022-11-25T11:45:33.356Z,25.27
2022-11-25T11:48:16.080Z,22.88
2022-11-25T11:50:46.256Z,22.44
2022-11-25T11:53:31.140Z,20.50
2022-11-25T11:56:35.748Z,19.60
2022-11-25T11:59:25.881Z,19.82
2022-11-25T12:02:21.820Z,17.94
2022-11-25T12:05:25.999Z,15.39
2022-11-25T12:08:16.138Z,14.78
2022-11-25T12:10:55.377Z,15.02
2022-11-25T12:14:00.686Z,15.29
2022-11-25T12:16:36.472Z,15.59
2022-11-25T12:19:44.659Z,16.66
2022-11-25T12:22:19.060Z,16.77
2022-11-25T12:24:54.207Z,18.11
2022-11-25T12:27:24.523Z,18.36
2022-11-25T12:31:04.737Z,17.26
2022-11-25T12:34:27.617Z,18.74
2022-11-25T12:37:15.135Z,21.24
2022-11-25T12:39:57.287Z,20.97
2022-11-25T12:42:26.176Z,20.80
2022-11-25T12:44:59.213Z,21.42
2022-11-25T12:47:26.992Z,20.96
2022-11-25T12:49:55.889Z,20.93
2022-11-25T12:52:46.718Z,20.39
2022-11-25T12:55:20.946Z,19.26
2022-11-25T12:58:02.940Z,18.21
2022-11-25T13:01:09.622Z,17.19
2022-11-25T13:04:17.166Z,16.38
2022-11-25T13:07:11.644Z,16.09
2022-11-25T13:10:39.737Z,15.65
2022-11-25T13:13:31.613Z,16.06
2022-11-25T13:16:02.018Z,16.16
2022-11-25T13:18:33.264Z,16.30
2022-11-25T13:21:12.465Z,16.29
2022-11-25T13:23:50.341Z,16.08
2022-11-25T13:26:29.589Z,15.96
2022-11-25T13:28:57.394Z,15.58
2022-11-25T13:31:31.390Z,15.34
2022-11-25T13:33:58.109Z,15.05
2022-11-25T13:36:44.341Z,14.69
2022-11-25T13:39:18.504Z,14.34
2022-11-25T13:42:01.470Z,14.17
2022-11-25T13:44:50.420Z,14.17
2022-11-25T13:47:46.528Z,14.25
2022-11-25T13:50:21.691Z,14.22
2022-11-25T13:53:24.669Z,14.24
2022-11-25T13:55:55.005Z,14.18
2022-11-25T13:58:33.129Z,14.16
2022-11-25T14:01:24.835Z,14.09
2022-11-25T14:04:00.354Z,13.94
2022-11-25T14:07:04.071Z,13.84
2022-11-25T14:10:04.749Z,13.92
2022-11-25T14:13:01.516Z,13.82
2022-11-25T14:15:43.132Z,13.73
2022-11-25T14:18:31.487Z,13.59
2022-11-25T14:21:32.744Z,13.42
2022-11-25T14:24:43.909Z,13.35
2022-11-25T14:27:19.376Z,13.35
2022-11-25T14:30:07.244Z,13.36
2022-11-25T14:32:59.664Z,13.33
2022-11-25T14:35:45.701Z,13.28
2022-11-25T14:38:23.341Z,13.26
2022-11-25T14:41:00.179Z,13.17
2022-11-25T14:43:29.002Z,13.15
2022-11-25T14:46:20.736Z,13.16
2022-11-25T14:49:00.867Z,12.98
2022-11-25T14:51:37.035Z,12.98
2022-11-25T14:54:08.449Z,12.93
2022-11-25T14:56:37.003Z,12.85
2022-11-25T14:59:04.201Z,12.80
2022-11-25T15:01:34.640Z,12.73
2022-11-25T15:04:24.178Z,12.65
2022-11-25T15:06:53.620Z,12.54
2022-11-25T15:09:28.318Z,12.38
2022-11-25T15:12:02.497Z,12.34
2022-11-25T15:14:39.349Z,12.34
2022-11-25T15:17:30.947Z,12.27
2022-11-25T15:20:12.039Z,12.24
2022-11-25T15:22:39.182Z,12.14
2022-11-25T15:25:14.807Z,11.99
2022-11-25T15:27:59.872Z,11.93
2022-11-25T15:30:31.880Z,11.96
2022-11-25T15:32:59.210Z,11.81
2022-11-25T15:35:27.531Z,11.77
2022-11-25T15:37:54.529Z,11.78
2022-11-25T15:40:33.820Z,11.71
2022-11-25T15:43:04.468Z,11.65
2022-11-25T15:45:44.613Z,11.47
2022-11-25T15:48:29.707Z,11.46
2022-11-25T15:51:31.560Z,11.41
2022-11-25T15:54:12.842Z,11.41
2022-11-25T15:56:53.368Z,11.37
2022-11-25T15:59:45.840Z,11.41
2022-11-25T16:02:34.122Z,11.37
2022-11-25T16:05:15.315Z,11.33
2022-11-25T16:07:51.563Z,11.30
2022-11-25T16:10:50.202Z,11.37
2022-11-25T16:13:37.867Z,11.35
2022-11-25T16:16:07.742Z,11.33
2022-11-25T16:18:52.625Z,11.30
2022-11-25T16:21:36.666Z,11.20
2022-11-25T16:24:06.418Z,11.31
2022-11-25T16:26:48.458Z,11.29
2022-11-25T16:29:27.945Z,11.28
2022-11-25T16:31:54.844Z,11.22
2022-11-25T16:34:24.246Z,11.05
2022-11-25T16:36:51.035Z,11.20
2022-11-25T16:39:17.863Z,11.18
2022-11-25T16:41:55.944Z,11.18
2022-11-25T16:44:25.554Z,11.15
2022-11-25T16:46:53.301Z,11.15
2022-11-25T16:49:22.551Z,11.11
2022-11-25T16:51:51.063Z,11.06
2022-11-25T16:54:23.832Z,11.03
2022-11-25T16:56:54.388Z,11.02
2022-11-25T16:59:31.857Z,11.03
2022-11-25T17:02:01.363Z,11.03
2022-11-25T17:04:29.284Z,11.10
2022-11-25T17:07:30.957Z,11.07
2022-11-25T17:09:45.039Z,11.10
2022-11-25T17:12:24.999Z,11.00
2022-11-25T17:14:52.814Z,10.97
2022-11-25T17:17:24.832Z,11.00
2022-11-25T17:19:53.371Z,11.00
2022-11-25T17:22:24.532Z,11.00
2022-11-25T17:24:51.925Z,11.01
2022-11-25T17:27:31.827Z,11.03
2022-11-25T17:30:03.538Z,11.04
2022-11-25T17:32:31.303Z,11.11
2022-11-25T17:34:58.135Z,11.08
2022-11-25T17:37:25.786Z,11.04
2022-11-25T17:39:53.649Z,10.98
2022-11-25T17:42:31.221Z,10.93
2022-11-25T17:44:58.621Z,10.93
2022-11-25T17:47:25.594Z,10.91
2022-11-25T17:49:53.206Z,10.92
2022-11-25T17:52:20.480Z,10.85
2022-11-25T17:54:47.321Z,10.85
2022-11-25T17:57:21.568Z,10.85
2022-11-25T17:59:48.529Z,10.72
2022-11-25T18:02:21.254Z,10.81
2022-11-25T18:04:48.943Z,10.73
2022-11-25T18:07:16.030Z,10.75
2022-11-25T18:09:44.304Z,10.78
2022-11-25T18:12:36.661Z,10.78
2022-11-25T18:15:08.233Z,10.81
2022-11-25T18:17:37.899Z,10.76
2022-11-25T18:20:21.103Z,10.76
2022-11-25T18:22:48.905Z,10.72
2022-11-25T18:25:18.964Z,10.70
2022-11-25T18:27:46.802Z,10.52
2022-11-25T18:30:24.386Z,10.51
2022-11-25T18:32:51.573Z,10.51
2022-11-25T18:35:22.395Z,10.46
2022-11-25T18:37:49.302Z,10.31
2022-11-25T18:40:16.608Z,10.34
2022-11-25T18:42:47.613Z,10.31
2022-11-25T18:45:28.718Z,10.19
2022-11-25T18:47:55.601Z,10.22
2022-11-25T18:50:26.613Z,10.15
2022-11-25T18:52:53.929Z,10.17
2022-11-25T18:55:23.105Z,10.11
2022-11-25T18:57:51.939Z,10.10
2022-11-25T19:00:33.547Z,10.07
2022-11-25T19:03:00.987Z,10.06
2022-11-25T19:05:33.806Z,10.07
2022-11-25T19:08:02.037Z,9.98
2022-11-25T19:10:35.870Z,9.92
2022-11-25T19:13:08.139Z,9.83
2022-11-25T19:15:37.444Z,9.79
2022-11-25T19:18:06.897Z,9.69
2022-11-25T19:20:33.804Z,9.64
2022-11-25T19:23:17.038Z,9.56
2022-11-25T19:25:44.838Z,9.53
2022-11-25T19:28:13.627Z,9.42
2022-11-25T19:30:40.738Z,9.41
2022-11-25T19:33:37.263Z,9.33
2022-11-25T19:36:06.098Z,9.28
2022-11-25T19:38:34.833Z,9.22
2022-11-25T19:41:01.823Z,9.17
2022-11-25T19:43:28.765Z,9.13
2022-11-25T19:45:57.305Z,9.12
2022-11-25T19:48:27.061Z,9.10
2022-11-25T19:50:59.463Z,9.02
2022-11-25T19:53:33.125Z,9.00
2022-11-25T19:56:03.891Z,8.95
2022-11-25T19:58:31.476Z,8.93
2022-11-25T20:01:05.821Z,8.85
2022-11-25T20:03:33.172Z,8.77
2022-11-25T20:05:59.993Z,8.74
2022-11-25T20:08:28.868Z,8.68
2022-11-25T20:10:57.464Z,8.62
2022-11-25T20:13:25.882Z,8.59
2022-11-25T20:15:55.765Z,8.48
2022-11-25T20:18:25.388Z,8.39
2022-11-25T20:21:04.371Z,8.22
2022-11-25T20:23:43.268Z,8.15
2022-11-25T20:26:23.371Z,8.15
2022-11-25T20:28:50.229Z,8.05
2022-11-25T20:31:17.143Z,8.06
2022-11-25T20:33:43.969Z,8.01
2022-11-25T20:36:16.184Z,7.99
2022-11-25T20:38:48.812Z,7.98
2022-11-25T20:41:16.467Z,7.97
2022-11-25T20:43:47.551Z,7.99
2022-11-25T20:46:22.807Z,7.97
2022-11-25T20:48:54.382Z,7.93
2022-11-25T20:51:22.843Z,7.91
2022-11-25T20:53:57.646Z,7.88
2022-11-25T20:56:26.587Z,7.94
2022-11-25T20:58:54.325Z,7.97
2022-11-25T21:01:21.537Z,8.02
2022-11-25T21:03:50.409Z,8.09
2022-11-25T21:06:22.004Z,8.13
2022-11-25T21:08:52.228Z,8.17
2022-11-25T21:11:20.509Z,8.24
2022-11-25T21:13:48.219Z,8.20
2022-11-25T21:16:15.484Z,8.25
2022-11-25T21:18:43.288Z,8.19
2022-11-25T21:21:33.402Z,8.29
2022-11-25T21:24:15.829Z,8.23
2022-11-25T21:26:42.680Z,8.24
2022-11-25T21:29:16.576Z,8.32
2022-11-25T21:31:43.880Z,8.34
2022-11-25T21:34:13.640Z,8.31
2022-11-25T21:36:41.931Z,8.32
2022-11-25T21:39:27.072Z,8.37
2022-11-25T21:41:54.649Z,8.50
2022-11-25T21:44:31.080Z,8.54
2022-11-25T21:46:58.415Z,8.57
2022-11-25T21:49:26.695Z,8.65
2022-11-25T21:51:53.618Z,8.71
2022-11-25T21:54:20.546Z,8.75
2022-11-25T21:56:47.462Z,8.72
2022-11-25T21:59:20.088Z,8.67
2022-11-25T22:01:47.765Z,8.66
2022-11-25T22:04:19.633Z,8.64
2022-11-25T22:06:47.978Z,8.67
2022-11-25T22:09:14.824Z,8.65
2022-11-25T22:11:50.337Z,8.68
2022-11-25T22:14:29.021Z,8.70
2022-11-25T22:16:56.899Z,8.66
2022-11-25T22:19:26.710Z,8.69
2022-11-25T22:21:54.562Z,8.62
2022-11-25T22:24:22.131Z,8.63
2022-11-25T22:26:57.675Z,8.65
2022-11-25T22:29:31.834Z,8.62
2022-11-25T22:31:58.787Z,8.61
2022-11-25T22:34:25.798Z,8.63
2022-11-25T22:36:52.690Z,8.57
2022-11-25T22:39:25.654Z,8.54
2022-11-25T22:42:09.617Z,8.54
2022-11-25T22:44:43.288Z,8.60
2022-11-25T22:47:32.602Z,8.63
2022-11-25T22:50:03.495Z,8.59
2022-11-25T22:52:33.866Z,8.63
2022-11-25T22:55:31.772Z,8.65
2022-11-25T22:58:01.041Z,8.64
2022-11-25T23:00:32.983Z,8.62
2022-11-25T23:03:03.204Z,8.66
2022-11-25T23:05:34.167Z,8.63
2022-11-25T23:08:11.693Z,8.62
2022-11-25T23:10:38.521Z,8.61
2022-11-25T23:13:05.368Z,8.59
2022-11-25T23:15:32.211Z,8.59
2022-11-25T23:18:01.876Z,8.58
2022-11-25T23:20:37.699Z,8.66
2022-11-25T23:23:21.113Z,8.70
2022-11-25T23:25:48.909Z,8.76
2022-11-25T23:28:16.458Z,8.74
2022-11-25T23:30:55.550Z,8.62
2022-11-25T23:33:37.928Z,8.56
2022-11-25T23:36:44.634Z,8.50
2022-11-25T23:39:19.986Z,8.60
2022-11-25T23:41:47.340Z,8.55
2022-11-25T23:44:36.497Z,8.44
2022-11-25T23:47:06.488Z,8.44
2022-11-25T23:49:44.349Z,8.52
2022-11-25T23:52:16.032Z,8.51
2022-11-25T23:54:47.895Z,8.47
2022-11-25T23:57:22.817Z,8.44
2022-11-25T23:59:50.561Z,8.47
